createdAt,value
2019-02-19T00:02:26.426Z,-0.40
2019-02-19T00:05:14.124Z,-0.50
2019-02-19T00:08:01.577Z,-0.50
2019-02-19T00:10:49.121Z,-0.40
2019-02-19T00:13:36.285Z,-0.50
2019-02-19T00:16:23.992Z,-0.20
2019-02-19T00:19:11.363Z,-0.30
2019-02-19T00:21:58.727Z,-0.50
2019-02-19T00:24:46.506Z,-0.60
2019-02-19T00:27:33.848Z,-0.60
2019-02-19T00:30:21.173Z,-0.60
2019-02-19T00:33:08.668Z,-0.50
2019-02-19T00:35:56.087Z,-0.50
2019-02-19T00:38:44.123Z,-0.50
2019-02-19T00:41:31.391Z,-0.60
2019-02-19T00:44:18.942Z,-0.80
2019-02-19T00:47:06.077Z,-0.80
2019-02-19T00:49:53.478Z,-0.90
2019-02-19T00:52:41.133Z,-0.90
2019-02-19T00:55:29.090Z,-0.90
2019-02-19T00:58:16.442Z,-0.80
2019-02-19T01:01:03.960Z,-0.80
2019-02-19T01:03:51.448Z,-1.00
2019-02-19T01:06:39.155Z,-1.10
2019-02-19T01:09:26.855Z,-1.10
2019-02-19T01:12:14.303Z,-1.10
2019-02-19T01:15:02.120Z,-1.10
2019-02-19T01:17:49.473Z,-1.30
2019-02-19T01:20:37.104Z,-1.20
2019-02-19T01:23:24.480Z,-1.30
2019-02-19T01:26:11.864Z,-1.40
2019-02-19T01:28:59.296Z,-1.50
2019-02-19T01:31:46.694Z,-1.60
2019-02-19T01:34:34.148Z,-1.60
2019-02-19T01:37:21.445Z,-1.50
2019-02-19T01:40:09.432Z,-1.50
2019-02-19T01:42:56.527Z,-1.40
2019-02-19T01:45:44.219Z,-1.40
2019-02-19T01:48:31.836Z,-1.50
2019-02-19T01:51:19.563Z,-1.60
2019-02-19T01:54:07.613Z,-1.40
2019-02-19T01:56:55.217Z,-1.40
2019-02-19T01:59:42.773Z,-1.50
2019-02-19T02:02:30.597Z,-1.50
2019-02-19T02:05:18.601Z,-1.60
2019-02-19T02:08:06.079Z,-1.60
2019-02-19T02:10:56.752Z,-1.70
2019-02-19T02:13:44.255Z,-1.80
2019-02-19T02:16:31.622Z,-1.90
2019-02-19T02:19:19.365Z,-2.00
2019-02-19T02:22:06.827Z,-1.90
2019-02-19T02:24:54.487Z,-1.80
2019-02-19T02:27:42.221Z,-1.80
2019-02-19T02:30:29.638Z,-1.90
2019-02-19T02:33:16.721Z,-1.90
2019-02-19T02:36:04.718Z,-1.90
2019-02-19T02:38:52.386Z,-2.00
2019-02-19T02:41:39.396Z,-2.00
2019-02-19T02:44:27.096Z,-2.00
2019-02-19T02:47:14.688Z,-2.10
2019-02-19T02:50:02.146Z,-2.00
2019-02-19T02:52:49.726Z,-2.00
2019-02-19T02:55:37.117Z,-1.80
2019-02-19T02:58:24.449Z,-1.80
2019-02-19T03:01:12.097Z,-1.80
2019-02-19T03:03:59.451Z,-2.00
2019-02-19T03:06:51.364Z,-2.10
2019-02-19T03:09:39.012Z,-2.10
2019-02-19T03:12:26.629Z,-2.20
2019-02-19T03:15:15.061Z,-2.30
2019-02-19T03:18:02.943Z,-2.30
2019-02-19T03:20:50.346Z,-2.30
2019-02-19T03:23:37.539Z,-2.20
2019-02-19T03:26:24.904Z,-2.20
2019-02-19T03:29:12.418Z,-2.20
2019-02-19T03:31:59.813Z,-2.20
2019-02-19T03:34:47.395Z,-2.20
2019-02-19T03:37:34.742Z,-2.20
2019-02-19T03:40:22.157Z,-2.00
2019-02-19T03:43:09.972Z,-2.10
2019-02-19T03:45:57.822Z,-2.20
2019-02-19T03:48:45.481Z,-2.30
2019-02-19T03:51:33.141Z,-2.30
2019-02-19T03:54:20.521Z,-2.40
2019-02-19T03:57:08.297Z,-2.50
2019-02-19T03:59:56.242Z,-2.50
2019-02-19T04:02:43.674Z,-2.50
2019-02-19T04:05:30.880Z,-2.50
2019-02-19T04:08:18.349Z,-2.40
2019-02-19T04:11:06.332Z,-2.30
2019-02-19T04:13:53.929Z,-2.30
2019-02-19T04:16:41.187Z,-2.40
2019-02-19T04:19:28.679Z,-2.40
2019-02-19T04:22:25.044Z,-2.40
2019-02-19T04:25:27.107Z,-2.40
2019-02-19T04:29:09.357Z,-2.50
2019-02-19T04:32:00.725Z,-2.40
2019-02-19T04:34:54.522Z,-2.40
2019-02-19T04:37:43.759Z,-2.40
2019-02-19T04:40:41.442Z,-2.50
2019-02-19T04:43:41.394Z,-2.50
2019-02-19T04:46:38.820Z,-2.50
2019-02-19T04:49:26.584Z,-2.50
2019-02-19T04:52:16.554Z,-2.50
2019-02-19T04:55:04.908Z,-2.40
2019-02-19T04:57:52.999Z,-2.40
2019-02-19T05:00:40.686Z,-2.40
2019-02-19T05:03:28.875Z,-2.30
2019-02-19T05:06:19.872Z,-2.40
2019-02-19T05:09:13.592Z,-2.40
2019-02-19T05:12:01.937Z,-2.30
2019-02-19T05:15:06.787Z,-2.40
2019-02-19T05:17:51.994Z,-2.60
2019-02-19T05:21:03.104Z,-2.60
2019-02-19T05:23:53.144Z,-2.60
2019-02-19T05:26:47.317Z,-2.60
2019-02-19T05:29:37.997Z,-2.60
2019-02-19T05:32:29.592Z,-2.60
2019-02-19T05:35:56.831Z,-2.60
2019-02-19T05:38:54.077Z,-2.60
2019-02-19T05:41:41.649Z,-2.40
2019-02-19T05:44:30.380Z,-2.40
2019-02-19T05:47:21.909Z,-2.40
2019-02-19T05:50:09.505Z,-2.40
2019-02-19T05:52:57.582Z,-2.40
2019-02-19T05:55:45.981Z,-2.50
2019-02-19T05:58:33.705Z,-2.40
2019-02-19T06:01:31.323Z,-2.40
2019-02-19T06:04:18.772Z,-2.20
2019-02-19T06:07:06.658Z,-2.30
2019-02-19T06:09:54.628Z,-2.40
2019-02-19T06:12:42.796Z,-2.50
2019-02-19T06:15:30.960Z,-2.50
2019-02-19T06:18:22.123Z,-2.60
2019-02-19T06:24:24.662Z,-2.40
2019-02-19T06:27:17.213Z,-2.40
2019-02-19T06:30:08.089Z,-2.40
2019-02-19T06:32:55.713Z,-2.30
2019-02-19T06:35:55.718Z,-2.30
2019-02-19T06:42:38.393Z,-2.20
2019-02-19T06:45:59.075Z,-2.20
2019-02-19T06:49:41.583Z,-2.10
2019-02-19T06:52:52.876Z,-1.70
2019-02-19T06:55:41.438Z,-1.70
2019-02-19T06:58:35.504Z,-1.60
2019-02-19T07:01:49.341Z,-1.40
2019-02-19T07:04:55.600Z,-1.10
2019-02-19T07:07:53.842Z,-0.80
2019-02-19T07:10:50.563Z,-0.60
2019-02-19T07:13:40.611Z,-0.40
2019-02-19T07:16:35.200Z,-0.30
2019-02-19T07:19:38.805Z,-0.10
2019-02-19T07:22:39.235Z,0.20
2019-02-19T07:25:32.094Z,0.40
2019-02-19T07:28:20.018Z,0.70
2019-02-19T07:31:08.199Z,1.00
2019-02-19T07:33:56.094Z,1.60
2019-02-19T07:36:43.957Z,2.00
2019-02-19T07:39:31.795Z,2.50
2019-02-19T07:42:19.724Z,2.80
2019-02-19T07:45:07.751Z,3.00
2019-02-19T07:47:55.264Z,2.80
2019-02-19T07:50:43.148Z,2.70
2019-02-19T07:53:31.363Z,2.60
2019-02-19T07:56:19.702Z,2.60
2019-02-19T07:59:07.479Z,2.60
2019-02-19T08:01:55.863Z,2.50
2019-02-19T08:04:44.397Z,2.50
2019-02-19T08:07:32.511Z,2.60
2019-02-19T08:10:21.485Z,2.70
2019-02-19T08:13:09.154Z,2.90
2019-02-19T08:15:56.814Z,3.00
2019-02-19T08:18:45.165Z,2.90
2019-02-19T08:21:33.225Z,3.30
2019-02-19T08:24:21.112Z,3.40
2019-02-19T08:27:09.338Z,3.30
2019-02-19T08:29:57.034Z,3.20
2019-02-19T08:32:44.592Z,3.10
2019-02-19T08:35:32.524Z,3.40
2019-02-19T08:38:20.346Z,3.70
2019-02-19T08:41:07.977Z,4.30
2019-02-19T08:43:55.275Z,5.30
2019-02-19T08:46:42.844Z,5.70
2019-02-19T08:49:30.634Z,6.30
2019-02-19T08:52:18.824Z,6.60
2019-02-19T08:55:07.028Z,6.80
2019-02-19T08:57:54.410Z,6.80
2019-02-19T09:00:41.832Z,7.10
2019-02-19T09:03:29.333Z,7.00
2019-02-19T09:06:17.248Z,6.90
2019-02-19T09:09:06.687Z,7.20
2019-02-19T09:11:54.342Z,7.40
2019-02-19T09:14:42.469Z,7.60
2019-02-19T09:17:30.331Z,7.40
2019-02-19T09:20:21.120Z,8.10
2019-02-19T09:23:08.477Z,8.50
2019-02-19T09:25:56.442Z,8.30
2019-02-19T09:28:44.385Z,8.30
2019-02-19T09:31:32.840Z,8.80
2019-02-19T09:34:20.612Z,9.80
2019-02-19T09:37:08.569Z,10.20
2019-02-19T09:39:56.348Z,10.40
2019-02-19T09:42:43.932Z,10.50
2019-02-19T09:45:31.625Z,10.20
2019-02-19T09:48:19.398Z,9.70
2019-02-19T09:51:06.603Z,9.60
2019-02-19T09:53:54.124Z,9.70
2019-02-19T09:56:41.974Z,9.50
2019-02-19T09:59:29.967Z,9.30
2019-02-19T10:02:23.593Z,9.30
2019-02-19T10:05:11.882Z,9.70
2019-02-19T10:07:59.907Z,9.70
2019-02-19T10:10:47.767Z,9.60
2019-02-19T10:13:35.767Z,9.70
2019-02-19T10:16:23.390Z,9.70
2019-02-19T10:19:10.820Z,9.70
2019-02-19T10:21:59.306Z,9.90
2019-02-19T10:24:47.231Z,9.90
2019-02-19T10:27:35.097Z,10.00
2019-02-19T10:30:22.465Z,10.20
2019-02-19T10:33:10.592Z,10.30
2019-02-19T10:35:58.679Z,10.20
2019-02-19T10:38:46.184Z,10.30
2019-02-19T10:41:33.486Z,10.30
2019-02-19T10:44:21.448Z,10.30
2019-02-19T10:47:09.932Z,10.40
2019-02-19T10:49:57.551Z,10.40
2019-02-19T10:52:44.802Z,10.40
2019-02-19T10:55:32.928Z,10.30
2019-02-19T10:58:23.116Z,10.40
2019-02-19T11:01:10.946Z,10.60
2019-02-19T11:03:58.595Z,10.80
2019-02-19T11:06:46.336Z,11.40
2019-02-19T11:09:34.500Z,11.90
2019-02-19T11:12:22.434Z,12.70
2019-02-19T11:15:09.934Z,13.10
2019-02-19T11:18:07.376Z,14.00
2019-02-19T11:21:06.080Z,14.20
2019-02-19T11:23:57.741Z,14.10
2019-02-19T11:26:46.132Z,14.00
2019-02-19T11:29:33.671Z,14.00
2019-02-19T11:32:21.184Z,14.30
2019-02-19T11:35:09.146Z,14.30
2019-02-19T11:37:57.083Z,14.00
2019-02-19T11:40:45.120Z,14.10
2019-02-19T11:43:33.209Z,14.10
2019-02-19T11:46:21.533Z,13.80
2019-02-19T11:49:09.650Z,14.60
2019-02-19T11:51:57.000Z,14.20
2019-02-19T11:54:44.527Z,13.80
2019-02-19T11:57:32.707Z,13.90
2019-02-19T12:00:24.176Z,14.10
2019-02-19T12:03:11.719Z,14.40
2019-02-19T12:05:59.505Z,14.90
2019-02-19T12:08:47.640Z,14.70
2019-02-19T12:11:35.418Z,14.40
2019-02-19T12:14:24.335Z,14.10
2019-02-19T12:17:11.680Z,13.90
2019-02-19T12:19:59.293Z,13.60
2019-02-19T12:22:46.993Z,13.50
2019-02-19T12:25:34.616Z,13.40
2019-02-19T12:28:22.306Z,13.30
2019-02-19T12:31:10.245Z,13.20
2019-02-19T12:33:57.612Z,13.20
2019-02-19T12:36:45.683Z,13.00
2019-02-19T12:39:33.389Z,12.50
2019-02-19T12:42:20.993Z,12.30
2019-02-19T12:45:09.764Z,12.20
2019-02-19T12:47:57.523Z,11.80
2019-02-19T12:50:45.755Z,11.80
2019-02-19T12:53:33.879Z,11.70
2019-02-19T12:56:21.560Z,11.90
2019-02-19T12:59:09.504Z,11.80
2019-02-19T13:01:57.638Z,12.00
2019-02-19T13:04:45.484Z,12.10
2019-02-19T13:07:34.020Z,12.10
2019-02-19T13:10:21.867Z,12.10
2019-02-19T13:13:09.758Z,12.10
2019-02-19T13:16:01.870Z,12.10
2019-02-19T13:18:49.630Z,12.00
2019-02-19T13:21:37.570Z,11.80
2019-02-19T13:24:25.516Z,11.50
2019-02-19T13:27:12.954Z,11.50
2019-02-19T13:30:00.410Z,11.50
2019-02-19T13:32:48.031Z,11.30
2019-02-19T13:35:35.647Z,11.20
2019-02-19T13:38:23.628Z,11.10
2019-02-19T13:41:11.398Z,11.20
2019-02-19T13:43:59.151Z,11.10
2019-02-19T13:46:47.452Z,10.90
2019-02-19T13:49:35.213Z,10.80
2019-02-19T13:52:36.550Z,10.90
2019-02-19T13:55:27.931Z,10.80
2019-02-19T13:58:15.497Z,10.80
2019-02-19T14:01:03.009Z,10.80
2019-02-19T14:03:50.628Z,10.70
2019-02-19T14:06:38.286Z,10.60
2019-02-19T14:09:26.128Z,10.50
2019-02-19T14:12:13.777Z,10.50
2019-02-19T14:15:23.453Z,10.40
2019-02-19T14:18:12.010Z,10.30
2019-02-19T14:21:23.556Z,10.30
2019-02-19T14:24:29.304Z,10.30
2019-02-19T14:27:35.571Z,10.30
2019-02-19T14:30:41.145Z,10.30
2019-02-19T14:33:49.132Z,10.40
2019-02-19T14:36:53.382Z,10.30
2019-02-19T14:39:54.252Z,10.30
2019-02-19T14:42:56.598Z,10.10
2019-02-19T14:45:57.607Z,10.10
2019-02-19T14:49:04.554Z,10.10
2019-02-19T14:52:16.666Z,10.00
2019-02-19T14:55:19.259Z,10.00
2019-02-19T14:58:27.776Z,10.00
2019-02-19T15:01:33.491Z,10.00
2019-02-19T15:04:43.730Z,10.10
2019-02-19T15:07:40.122Z,10.10
2019-02-19T15:10:50.473Z,10.10
2019-02-19T15:13:55.948Z,10.00
2019-02-19T15:17:11.781Z,9.90
2019-02-19T15:20:13.641Z,9.80
2019-02-19T15:23:23.742Z,9.80
2019-02-19T15:26:30.740Z,9.70
2019-02-19T15:29:37.490Z,9.70
2019-02-19T15:32:42.860Z,9.80
2019-02-19T15:35:47.948Z,9.70
2019-02-19T15:38:42.328Z,9.70
2019-02-19T15:41:36.768Z,9.70
2019-02-19T15:44:46.553Z,9.70
2019-02-19T15:47:51.882Z,9.60
2019-02-19T15:51:14.141Z,9.40
2019-02-19T15:54:20.874Z,9.40
2019-02-19T15:57:30.809Z,9.40
2019-02-19T16:00:30.682Z,9.30
2019-02-19T16:03:31.746Z,9.20
2019-02-19T16:06:27.625Z,9.10
2019-02-19T16:09:42.923Z,9.10
2019-02-19T16:12:49.687Z,9.00
2019-02-19T16:15:55.445Z,9.00
2019-02-19T16:19:01.476Z,8.90
2019-02-19T16:21:54.295Z,8.80
2019-02-19T16:24:56.837Z,8.80
2019-02-19T16:28:09.847Z,8.80
2019-02-19T16:31:16.971Z,8.80
2019-02-19T16:34:13.000Z,8.70
2019-02-19T16:37:28.941Z,8.70
2019-02-19T16:40:38.502Z,8.70
2019-02-19T16:43:54.480Z,8.60
2019-02-19T16:46:49.878Z,8.60
2019-02-19T16:50:06.916Z,8.50
2019-02-19T16:53:10.884Z,8.50
2019-02-19T16:56:13.909Z,8.50
2019-02-19T16:59:38.334Z,8.50
2019-02-19T17:02:43.943Z,8.50
2019-02-19T17:05:42.555Z,8.40
2019-02-19T17:08:55.860Z,8.50
2019-02-19T17:12:02.472Z,8.50
2019-02-19T17:15:18.614Z,8.50
2019-02-19T17:18:28.910Z,8.40
2019-02-19T17:21:35.730Z,8.40
2019-02-19T17:24:31.181Z,8.40
2019-02-19T17:27:44.049Z,8.30
2019-02-19T17:30:52.701Z,8.40
2019-02-19T17:34:18.346Z,8.40
2019-02-19T17:37:37.109Z,8.50
2019-02-19T17:41:02.732Z,8.40
2019-02-19T17:44:07.764Z,8.40
2019-02-19T17:47:23.823Z,8.30
2019-02-19T17:51:01.852Z,8.30
2019-02-19T17:54:09.790Z,8.20
2019-02-19T17:57:25.358Z,8.10
2019-02-19T18:00:44.885Z,8.10
2019-02-19T18:04:11.152Z,8.10
2019-02-19T18:07:35.019Z,8.10
2019-02-19T18:10:56.056Z,8.00
2019-02-19T18:14:18.955Z,8.00
2019-02-19T18:17:38.596Z,8.00
2019-02-19T18:20:28.384Z,8.00
2019-02-19T18:23:38.300Z,8.00
2019-02-19T18:26:37.336Z,7.90
2019-02-19T18:29:24.497Z,7.80
2019-02-19T18:32:13.113Z,7.80
2019-02-19T18:35:01.688Z,7.80
2019-02-19T18:37:51.925Z,7.80
2019-02-19T18:40:40.619Z,7.80
2019-02-19T18:43:28.360Z,7.70
2019-02-19T18:46:17.025Z,7.70
2019-02-19T18:49:04.983Z,7.70
2019-02-19T18:51:52.965Z,7.70
2019-02-19T18:54:41.063Z,7.60
2019-02-19T18:57:29.261Z,7.60
2019-02-19T19:00:26.580Z,7.60
2019-02-19T19:03:21.592Z,7.60
2019-02-19T19:06:13.129Z,7.60
2019-02-19T19:09:04.501Z,7.50
2019-02-19T19:11:54.831Z,7.40
2019-02-19T19:14:45.973Z,7.40
2019-02-19T19:17:33.972Z,7.40
2019-02-19T19:20:24.828Z,7.40
2019-02-19T19:23:12.836Z,7.40
2019-02-19T19:26:01.924Z,7.30
2019-02-19T19:28:50.320Z,7.20
2019-02-19T19:31:38.185Z,7.20
2019-02-19T19:34:26.944Z,7.20
2019-02-19T19:37:14.953Z,7.20
2019-02-19T19:40:02.732Z,7.10
2019-02-19T19:42:50.308Z,7.00
2019-02-19T19:45:40.459Z,6.90
2019-02-19T19:48:28.187Z,7.00
2019-02-19T19:51:17.310Z,6.90
2019-02-19T19:54:05.292Z,6.80
2019-02-19T19:56:53.691Z,6.70
2019-02-19T19:59:41.657Z,6.60
2019-02-19T20:02:35.595Z,6.60
2019-02-19T20:05:38.371Z,6.50
2019-02-19T20:08:16.521Z,6.50
2019-02-19T20:11:05.581Z,6.40
2019-02-19T20:13:54.188Z,6.30
2019-02-19T20:16:42.075Z,6.20
2019-02-19T20:19:30.778Z,6.00
2019-02-19T20:22:20.916Z,5.90
2019-02-19T20:25:09.386Z,5.80
2019-02-19T20:27:56.933Z,5.60
2019-02-19T20:30:48.267Z,5.50
2019-02-19T20:33:37.399Z,5.30
2019-02-19T20:36:25.442Z,5.10
2019-02-19T20:39:16.190Z,5.00
2019-02-19T20:42:06.802Z,4.90
2019-02-19T20:45:12.363Z,4.80
2019-02-19T20:48:05.161Z,4.60
2019-02-19T20:54:52.052Z,4.40
2019-02-19T20:57:56.059Z,4.30
2019-02-19T21:01:15.305Z,4.30
2019-02-19T21:04:20.380Z,4.20
2019-02-19T21:07:11.038Z,4.20
2019-02-19T21:10:04.109Z,4.10
2019-02-19T21:12:52.617Z,3.90
2019-02-19T21:15:40.255Z,3.90
2019-02-19T21:18:33.633Z,3.80
2019-02-19T21:21:35.277Z,3.70
2019-02-19T21:24:27.310Z,3.70
2019-02-19T21:27:18.858Z,3.50
2019-02-19T21:33:07.778Z,3.40
2019-02-19T21:45:07.907Z,3.20
2019-02-19T21:50:42.176Z,3.30
2019-02-19T21:53:31.305Z,3.20
2019-02-19T21:56:23.627Z,3.10
2019-02-19T21:59:20.045Z,3.10
2019-02-19T22:02:16.227Z,3.10
2019-02-19T22:05:08.131Z,3.00
2019-02-19T22:07:59.816Z,2.80
2019-02-19T22:10:48.649Z,2.70
2019-02-19T22:13:39.557Z,2.70
2019-02-19T22:16:27.316Z,2.60
2019-02-19T22:19:17.746Z,2.60
2019-02-19T22:22:19.705Z,2.60
2019-02-19T22:25:09.683Z,2.50
2019-02-19T22:28:02.646Z,2.40
2019-02-19T22:30:58.635Z,2.30
2019-02-19T22:33:46.617Z,2.10
2019-02-19T22:36:39.396Z,2.10
2019-02-19T22:39:27.231Z,2.00
2019-02-19T22:42:18.559Z,2.10
2019-02-19T22:45:06.932Z,2.00
2019-02-19T22:47:57.624Z,2.00
2019-02-19T22:50:48.433Z,1.80
2019-02-19T22:53:59.564Z,1.80
2019-02-19T22:56:48.957Z,1.70
2019-02-19T22:59:39.838Z,1.70
2019-02-19T23:02:30.621Z,1.60
2019-02-19T23:05:19.156Z,1.60
2019-02-19T23:08:09.769Z,1.50
2019-02-19T23:11:04.003Z,1.40
2019-02-19T23:13:54.355Z,1.30
2019-02-19T23:16:41.523Z,1.20
2019-02-19T23:19:35.383Z,1.10
2019-02-19T23:22:23.282Z,1.10
2019-02-19T23:25:13.642Z,1.10
2019-02-19T23:28:05.101Z,1.10
2019-02-19T23:30:57.543Z,1.20
2019-02-19T23:33:48.790Z,1.20
2019-02-19T23:36:54.969Z,1.20
2019-02-19T23:39:44.025Z,1.30
2019-02-19T23:42:37.101Z,1.30
2019-02-19T23:45:25.237Z,1.30
2019-02-19T23:48:16.541Z,1.30
2019-02-19T23:54:48.659Z,1.30
2019-02-19T23:57:39.044Z,1.20
